Time;durP1;ratioP1;P1;durP2;ratioP2;P2;SDS_P1;SDS_P2;PMS_P1;PMS_P2;Temp;Humidity;BMP_temperature;BMP_pressure;BME280_temperature;BME280_humidity;BME280_pressure;Samples;Min_cycle;Max_cycle;Signal;HPM_P1;HPM_P2
2022/06/25 06:14:48;;;;;;;;;;;;;;;23.50;59.78;96705.84;4249142;27;11154;-68
2022/06/25 06:16:53;;;;;;;;;;;;;;;23.79;59.22;96709.50;4230007;28;5757;-69
2022/06/25 06:18:56;;;;;;;;;;;;;;;24.04;59.10;96710.41;4229816;28;5667;-69
2022/06/25 06:20:59;;;;;;;;;;;;;;;24.21;58.06;96702.69;4224023;28;5676;-69
2022/06/25 06:23:02;;;;;;;;;;;;;;;24.35;58.10;96700.19;4229071;28;5774;-70
2022/06/25 06:25:06;;;;;;;;;;;;;;;24.52;57.65;96703.28;4227335;27;5109;-70
2022/06/25 06:27:10;;;;;;;;;;;;;;;24.66;57.38;96706.13;4229169;28;5684;-70
2022/06/25 06:29:13;;;;;;;;;;;;;;;24.76;56.64;96700.63;4229801;28;5726;-70
2022/06/25 06:31:20;;;;;;;;;;;;;;;24.81;56.47;96697.88;4243825;27;7380;-70
2022/06/25 06:33:23;;;;;;;;;;;;;;;24.85;56.29;96703.50;4245622;27;5810;-70
2022/06/25 06:35:28;;;;;;;;;;;;;;;24.80;55.86;96693.53;4229908;28;5679;-71
2022/06/25 06:37:31;;;;;;;;;;;;;;;24.81;56.13;96681.66;4227661;28;5683;-71
2022/06/25 06:39:36;;;;;;;;;;;;;;;24.84;55.70;96688.38;4224959;28;5698;-70
2022/06/25 06:41:39;;;;;;;;;;;;;;;24.82;55.88;96682.47;4231341;28;5664;-70
2022/06/25 06:43:42;;;;;;;;;;;;;;;24.84;55.62;96675.66;4227493;28;5699;-70
2022/06/25 06:45:45;;;;;;;;;;;;;;;24.90;55.49;96685.31;4220309;28;5677;-70
2022/06/25 06:47:51;;;;;;;;;;;;;;;24.93;55.39;96678.53;4239017;27;5740;-70
2022/06/25 06:49:54;;;;;;;;;;;;;;;24.96;54.97;96667.16;4240232;27;6356;-70
2022/06/25 06:51:57;;;;;;;;;;;;;;;25.01;54.95;96674.38;4230817;28;5668;-70
2022/06/25 06:54:00;;;;;;;;;;;;;;;25.08;54.37;96680.28;4229534;28;5762;-70
2022/06/25 06:56:03;;;;;;;;;;;;;;;25.15;54.27;96675.34;4231486;28;5731;-70
2022/06/25 06:58:06;;;;;;;;;;;;;;;25.19;54.49;96681.78;4228455;28;5671;-70
2022/06/25 07:00:10;;;;;;;;;;;;;;;25.25;54.12;96681.41;4228894;28;6964;-71
2022/06/25 07:02:13;;;;;;;;;;;;;;;25.31;53.68;96686.78;4228851;28;5813;-71
2022/06/25 07:04:17;;;;;;;;;;;;;;;25.30;53.94;96679.75;4229750;28;5679;-70
2022/06/25 07:06:20;;;;;;;;;;;;;;;25.28;53.46;96682.75;4230792;28;5735;-72
2022/06/25 07:08:23;;;;;;;;;;;;;;;25.24;53.53;96684.41;4228980;28;5687;-71
2022/06/25 07:10:27;;;;;;;;;;;;;;;25.21;53.00;96682.28;4229564;28;5671;-72
2022/06/25 07:12:29;;;;;;;;;;;;;;;25.12;53.28;96684.03;4219914;28;5787;-71
2022/06/25 07:14:33;;;;;;;;;;;;;;;25.02;52.91;96686.84;4220602;28;5754;-71
2022/06/25 07:16:36;;;;;;;;;;;;;;;24.92;53.09;96691.25;4219987;28;6347;-72
2022/06/25 07:18:39;;;;;;;;;;;;;;;24.84;52.95;96686.47;4219884;28;5742;-71
2022/06/25 07:20:43;;;;;;;;;;;;;;;24.81;52.96;96692.47;4217750;28;5687;-72
2022/06/25 07:22:54;;;;;;;;;;;;;;;24.75;52.78;96687.38;4219009;28;5802;-71
2022/06/25 07:24:57;;;;;;;;;;;;;;;24.71;52.74;96692.56;4212175;28;5658;-71
2022/06/25 07:27:00;;;;;;;;;;;;;;;24.61;52.96;96692.66;4225719;27;5711;-71
2022/06/25 07:29:02;;;;;;;;;;;;;;;24.50;52.47;96697.34;4218508;28;5081;-71
2022/06/25 07:31:06;;;;;;;;;;;;;;;24.42;52.83;96689.06;4219873;28;5856;-72
2022/06/25 07:33:09;;;;;;;;;;;;;;;24.33;52.96;96692.34;4218739;28;5675;-71
2022/06/25 07:35:11;;;;;;;;;;;;;;;24.27;52.75;96692.66;4219114;28;5663;-71
2022/06/25 07:37:16;;;;;;;;;;;;;;;24.23;52.56;96683.50;4218427;28;5670;-71
2022/06/25 07:39:19;;;;;;;;;;;;;;;24.18;52.46;96681.66;4217643;28;6006;-71
2022/06/25 07:41:22;;;;;;;;;;;;;;;24.15;52.54;96676.03;4218788;28;5882;-71
2022/06/25 07:43:27;;;;;;;;;;;;;;;24.08;52.56;96679.84;4217787;28;5726;-71
2022/06/25 07:45:30;;;;;;;;;;;;;;;24.05;52.23;96677.72;4211998;28;5097;-71
2022/06/25 07:47:37;;;;;;;;;;;;;;;24.06;52.63;96670.41;4216967;28;5783;-71
2022/06/25 07:52:00;;;;;;;;;;;;;;;23.95;52.02;96674.28;4217823;28;5667;-71
2022/06/25 07:54:04;;;;;;;;;;;;;;;23.86;52.50;96674.06;4216527;28;5810;-68
2022/06/25 07:56:07;;;;;;;;;;;;;;;23.80;52.34;96673.31;4213490;28;6499;-69
2022/06/25 07:58:10;;;;;;;;;;;;;;;23.79;52.39;96674.41;4217753;28;5765;-69
2022/06/25 08:00:14;;;;;;;;;;;;;;;23.81;52.78;96674.91;4217904;28;5683;-69
2022/06/25 08:02:17;;;;;;;;;;;;;;;23.83;52.42;96671.13;4218470;28;5667;-70
2022/06/25 08:04:20;;;;;;;;;;;;;;;23.82;52.27;96664.94;4218284;28;5671;-70
2022/06/25 08:06:23;;;;;;;;;;;;;;;23.85;52.40;96668.94;4217138;28;5754;-69
2022/06/25 08:08:26;;;;;;;;;;;;;;;23.86;52.54;96665.97;4214460;28;5786;-69
2022/06/25 08:10:31;;;;;;;;;;;;;;;23.91;52.42;96662.44;4216726;28;5692;-70
2022/06/25 08:12:34;;;;;;;;;;;;;;;23.88;52.62;96662.97;4217783;28;5666;-69
2022/06/25 08:14:37;;;;;;;;;;;;;;;23.82;52.54;96659.53;4217735;28;5703;-70
2022/06/25 08:16:41;;;;;;;;;;;;;;;23.85;52.48;96655.44;4218611;28;5694;-71
2022/06/25 08:18:44;;;;;;;;;;;;;;;23.87;52.37;96650.56;4216784;28;5663;-71
2022/06/25 08:20:47;;;;;;;;;;;;;;;23.83;52.22;96654.94;4208813;28;5664;-72
2022/06/25 08:22:50;;;;;;;;;;;;;;;23.79;52.40;96649.31;4215797;28;5849;-72
2022/06/25 08:24:53;;;;;;;;;;;;;;;23.78;51.94;96645.78;4217914;28;5842;-72
2022/06/25 08:26:58;;;;;;;;;;;;;;;23.85;52.26;96644.66;4215623;28;5727;-73
2022/06/25 08:29:01;;;;;;;;;;;;;;;23.87;52.01;96640.59;4217318;28;5683;-71
2022/06/25 08:31:04;;;;;;;;;;;;;;;23.87;51.82;96639.78;4218034;28;6864;-71
2022/06/25 08:33:07;;;;;;;;;;;;;;;23.88;52.32;96634.09;4218555;28;5751;-70
2022/06/25 08:35:10;;;;;;;;;;;;;;;23.87;52.30;96637.88;4216760;28;5096;-71
2022/06/25 08:37:13;;;;;;;;;;;;;;;23.94;52.07;96642.97;4218614;28;5758;-71
2022/06/25 08:39:16;;;;;;;;;;;;;;;23.95;51.73;96631.88;4218713;28;5692;-72
2022/06/25 08:41:19;;;;;;;;;;;;;;;23.99;52.17;96642.91;4218478;28;5667;-72
2022/06/25 08:43:24;;;;;;;;;;;;;;;23.95;52.24;96636.47;4218548;28;5746;-72
2022/06/25 08:45:27;;;;;;;;;;;;;;;23.92;51.76;96637.06;4218652;28;5735;-72
2022/06/25 08:47:31;;;;;;;;;;;;;;;23.93;51.60;96638.66;4218609;28;5703;-72
2022/06/25 08:49:35;;;;;;;;;;;;;;;23.92;51.85;96631.66;4218081;28;5694;-72
2022/06/25 08:51:39;;;;;;;;;;;;;;;23.91;51.72;96630.03;4218400;28;5667;-72
2022/06/25 08:53:43;;;;;;;;;;;;;;;23.94;51.77;96629.47;4218655;28;5746;-72
2022/06/25 08:55:46;;;;;;;;;;;;;;;23.94;52.03;96630.28;4218315;28;5073;-72
2022/06/25 08:57:50;;;;;;;;;;;;;;;23.95;52.10;96628.38;4218526;28;5671;-71
2022/06/25 08:59:56;;;;;;;;;;;;;;;23.95;51.77;96631.09;4218401;28;5754;-72
2022/06/25 09:01:59;;;;;;;;;;;;;;;23.96;51.57;96622.69;4218682;28;5745;-72
2022/06/25 09:04:02;;;;;;;;;;;;;;;24.00;51.67;96634.53;4217239;28;5746;-71
2022/06/25 09:06:14;;;;;;;;;;;;;;;24.02;51.62;96626.19;4218447;28;5684;-71
2022/06/25 09:08:17;;;;;;;;;;;;;;;24.03;52.05;96622.38;4218389;28;5735;-72
2022/06/25 09:10:21;;;;;;;;;;;;;;;24.03;51.59;96614.28;4217950;28;6338;-70
2022/06/25 09:12:29;;;;;;;;;;;;;;;23.99;51.97;96615.91;4218478;28;6441;-72
2022/06/25 09:14:35;;;;;;;;;;;;;;;23.98;51.66;96622.41;4217738;28;5676;-71
2022/06/25 09:16:39;;;;;;;;;;;;;;;23.99;52.21;96614.03;4218324;28;5684;-72
2022/06/25 09:18:48;;;;;;;;;;;;;;;24.00;51.96;96612.94;4218067;28;5660;-71
2022/06/25 09:20:58;;;;;;;;;;;;;;;24.01;51.66;96619.97;4217973;28;5675;-71
2022/06/25 09:23:03;;;;;;;;;;;;;;;24.01;51.69;96616.44;4218207;28;5688;-70
2022/06/25 09:25:06;;;;;;;;;;;;;;;24.04;52.02;96616.69;4218259;28;5664;-71
2022/06/25 09:27:09;;;;;;;;;;;;;;;24.07;51.85;96623.41;4218407;28;5688;-70
2022/06/25 09:29:13;;;;;;;;;;;;;;;24.07;51.84;96608.03;4218279;28;5668;-71
2022/06/25 09:31:34;;;;;;;;;;;;;;;24.08;51.68;96612.31;4217995;28;5695;-72
2022/06/25 09:33:41;;;;;;;;;;;;;;;24.09;51.97;96618.53;4218059;28;5736;-72
2022/06/25 09:35:43;;;;;;;;;;;;;;;24.09;51.71;96611.25;4214607;28;5810;-71
2022/06/25 09:37:46;;;;;;;;;;;;;;;24.08;51.70;96612.31;4200898;28;5704;-71
2022/06/25 09:39:50;;;;;;;;;;;;;;;24.11;51.51;96614.44;4208167;28;6382;-72
2022/06/25 09:41:54;;;;;;;;;;;;;;;24.08;52.16;96609.63;4212379;28;5683;-66
2022/06/25 09:43:57;;;;;;;;;;;;;;;24.07;52.16;96604.50;4216307;28;5674;-66
2022/06/25 09:46:04;;;;;;;;;;;;;;;24.14;51.96;96613.09;4216335;28;5799;-65
2022/06/25 09:48:09;;;;;;;;;;;;;;;24.12;51.77;96609.84;4216268;28;5775;-66
2022/06/25 09:50:15;;;;;;;;;;;;;;;24.07;52.00;96596.41;4213588;28;5683;-66
2022/06/25 09:52:18;;;;;;;;;;;;;;;24.08;52.06;96606.94;4210240;28;5853;-67
2022/06/25 09:54:21;;;;;;;;;;;;;;;24.10;52.23;96601.25;4216059;28;5667;-66
2022/06/25 09:56:25;;;;;;;;;;;;;;;24.12;52.14;96599.06;4228683;28;6124;-66
2022/06/25 09:58:31;;;;;;;;;;;;;;;24.16;52.17;96594.72;4232880;27;5733;-67
2022/06/25 10:00:34;;;;;;;;;;;;;;;24.21;52.01;96599.25;4226303;27;5686;-66
2022/06/25 10:02:38;;;;;;;;;;;;;;;24.24;52.29;96601.41;4212273;28;5774;-66
2022/06/25 10:04:45;;;;;;;;;;;;;;;24.25;52.31;96598.41;4207675;28;5684;-67
2022/06/25 10:06:54;;;;;;;;;;;;;;;24.23;52.51;96600.56;4215846;28;5935;-66
2022/06/25 10:09:02;;;;;;;;;;;;;;;24.22;52.65;96598.97;4208337;28;5931;-70
2022/06/25 10:11:07;;;;;;;;;;;;;;;24.26;52.45;96589.22;4210693;28;5734;-71
2022/06/25 10:13:10;;;;;;;;;;;;;;;24.25;52.54;96584.91;4216084;27;5822;-70
2022/06/25 10:15:16;;;;;;;;;;;;;;;24.26;52.70;96588.41;4217158;28;5646;-71
2022/06/25 10:17:19;;;;;;;;;;;;;;;24.28;52.26;96597.03;4214214;28;5714;-70
2022/06/25 10:19:25;;;;;;;;;;;;;;;24.32;52.50;96588.09;4230138;28;5658;-71
2022/06/25 10:21:28;;;;;;;;;;;;;;;24.30;52.64;96595.69;4226492;28;6457;-70
2022/06/25 10:23:32;;;;;;;;;;;;;;;24.31;52.83;96591.09;4217148;28;5761;-70
2022/06/25 10:25:37;;;;;;;;;;;;;;;24.29;52.55;96585.94;4217000;28;5741;-70
2022/06/25 10:27:40;;;;;;;;;;;;;;;24.31;53.03;96582.97;4226447;27;5706;-71
2022/06/25 10:29:53;;;;;;;;;;;;;;;24.35;52.64;96590.25;4212196;28;5830;-71
2022/06/25 10:32:15;;;;;;;;;;;;;;;24.38;52.80;96578.84;4213285;28;5801;-70
2022/06/25 10:34:18;;;;;;;;;;;;;;;24.41;52.56;96582.06;4212824;28;5729;-70
2022/06/25 10:36:40;;;;;;;;;;;;;;;24.44;52.69;96581.50;4209578;28;5689;-70
2022/06/25 10:38:44;;;;;;;;;;;;;;;24.48;52.93;96579.84;4218014;28;5657;-70
2022/06/25 10:40:50;;;;;;;;;;;;;;;24.47;52.82;96578.25;4213415;28;5683;-70
2022/06/25 10:43:01;;;;;;;;;;;;;;;24.49;53.26;96586.84;4213689;28;5703;-71
2022/06/25 10:45:06;;;;;;;;;;;;;;;24.48;52.77;96574.44;4214807;28;5660;-70
2022/06/25 10:47:16;;;;;;;;;;;;;;;24.53;53.02;96582.47;4212617;28;5088;-70
2022/06/25 10:49:22;;;;;;;;;;;;;;;24.52;53.32;96581.69;4210083;28;5842;-71
2022/06/25 10:51:30;;;;;;;;;;;;;;;24.52;53.15;96588.97;4218505;28;5773;-70
2022/06/25 10:53:33;;;;;;;;;;;;;;;24.51;53.10;96584.66;4218621;28;6624;-70
2022/06/25 10:55:40;;;;;;;;;;;;;;;24.52;53.47;96580.88;4219483;28;5773;-70
2022/06/25 10:57:42;;;;;;;;;;;;;;;24.54;53.10;96578.69;4203342;28;5740;-71
2022/06/25 10:59:48;;;;;;;;;;;;;;;24.52;53.34;96575.47;4218536;28;5790;-70
2022/06/25 11:01:57;;;;;;;;;;;;;;;24.54;53.36;96574.09;4216471;28;5691;-71
2022/06/25 11:04:12;;;;;;;;;;;;;;;24.55;53.64;96558.66;4214964;28;5809;-70
2022/06/25 11:06:20;;;;;;;;;;;;;;;24.59;53.64;96565.94;4218752;28;5220;-71
2022/06/25 11:08:33;;;;;;;;;;;;;;;24.59;53.17;96562.44;4219733;28;5770;-70
2022/06/25 11:10:38;;;;;;;;;;;;;;;24.60;53.19;96558.63;4218216;28;5692;-69
2022/06/25 11:12:49;;;;;;;;;;;;;;;24.59;53.71;96565.94;4217606;28;7310;-70
2022/06/25 11:14:59;;;;;;;;;;;;;;;24.61;53.65;96554.84;4205741;28;5692;-70
2022/06/25 11:17:08;;;;;;;;;;;;;;;24.65;53.66;96556.66;4217099;28;5963;-70
2022/06/25 11:19:13;;;;;;;;;;;;;;;24.70;53.41;96550.41;4215825;28;5803;-70
2022/06/25 11:21:30;;;;;;;;;;;;;;;24.73;53.75;96549.81;4217370;28;5671;-71
2022/06/25 11:23:34;;;;;;;;;;;;;;;24.74;53.39;96546.00;4218292;28;5898;-71
2022/06/25 11:30:30;;;;;;;;;;;;;;;24.81;53.41;96551.09;4215763;28;5678;-71
2022/06/25 11:32:33;;;;;;;;;;;;;;;24.86;53.67;96553.72;4216733;28;5794;-71
2022/06/25 11:34:36;;;;;;;;;;;;;;;24.89;53.28;96543.09;4215953;28;7702;-71
2022/06/25 11:36:39;;;;;;;;;;;;;;;24.91;53.63;96540.91;4213520;28;5683;-70
2022/06/25 11:38:43;;;;;;;;;;;;;;;24.93;53.47;96546.84;4216797;28;5686;-68
2022/06/25 11:40:48;;;;;;;;;;;;;;;24.96;53.30;96548.97;4203135;28;5109;-70
2022/06/25 11:42:51;;;;;;;;;;;;;;;24.98;53.31;96548.69;4213916;28;5822;-69
2022/06/25 11:44:56;;;;;;;;;;;;;;;24.99;53.71;96553.00;4219377;28;5801;-69
2022/06/25 11:47:04;;;;;;;;;;;;;;;25.00;53.45;96548.38;4219303;28;5663;-70
2022/06/25 11:49:07;;;;;;;;;;;;;;;25.03;53.59;96550.53;4217059;28;5899;-71
2022/06/25 11:51:10;;;;;;;;;;;;;;;25.04;53.02;96552.16;4213029;28;6528;-66
2022/06/25 11:53:13;;;;;;;;;;;;;;;25.03;53.20;96554.06;4211032;28;5791;-70
2022/06/25 11:55:16;;;;;;;;;;;;;;;25.05;53.54;96545.66;4217782;28;5686;-68
2022/06/25 11:57:23;;;;;;;;;;;;;;;25.05;53.12;96545.66;4218758;28;5687;-69
2022/06/25 11:59:31;;;;;;;;;;;;;;;25.08;53.22;96551.28;4217023;28;5077;-68
2022/06/25 12:01:34;;;;;;;;;;;;;;;25.12;53.22;96551.50;4218337;28;5683;-70
2022/06/25 12:03:37;;;;;;;;;;;;;;;25.12;53.46;96552.28;4215608;28;5874;-65
2022/06/25 12:05:40;;;;;;;;;;;;;;;25.14;53.49;96549.28;4213780;28;5807;-64
2022/06/25 12:07:45;;;;;;;;;;;;;;;25.17;53.33;96548.72;4218998;28;5656;-65
2022/06/25 12:09:51;;;;;;;;;;;;;;;25.17;53.03;96551.44;4223303;28;5742;-65
2022/06/25 12:11:55;;;;;;;;;;;;;;;25.14;53.44;96552.00;4217724;28;5792;-64
2022/06/25 12:13:59;;;;;;;;;;;;;;;25.11;53.25;96550.69;4217707;28;5698;-63
2022/06/25 12:16:04;;;;;;;;;;;;;;;25.11;53.39;96555.28;4214083;28;5713;-66
2022/06/25 12:18:08;;;;;;;;;;;;;;;25.13;53.24;96547.69;4207494;28;5687;-66
2022/06/25 12:20:13;;;;;;;;;;;;;;;25.14;53.18;96549.28;4218589;28;5675;-66
2022/06/25 12:22:25;;;;;;;;;;;;;;;25.16;53.22;96547.94;4218226;28;6308;-66
2022/06/25 12:24:28;;;;;;;;;;;;;;;25.16;53.43;96547.94;4215142;28;5866;-67
2022/06/25 12:26:33;;;;;;;;;;;;;;;25.18;53.41;96539.50;4217075;28;5707;-67
2022/06/25 12:28:36;;;;;;;;;;;;;;;25.19;53.10;96541.13;4213993;28;5709;-73
2022/06/25 12:30:40;;;;;;;;;;;;;;;25.19;53.26;96538.41;4208796;28;6559;-68
2022/06/25 12:32:44;;;;;;;;;;;;;;;25.19;53.04;96536.50;4205309;28;5814;-78
2022/06/25 12:34:48;;;;;;;;;;;;;;;25.19;52.86;96533.81;4203931;28;5810;-65
2022/06/25 12:36:52;;;;;;;;;;;;;;;25.22;52.94;96540.53;4215497;28;6357;-65
2022/06/25 12:38:55;;;;;;;;;;;;;;;25.23;52.90;96536.72;4218322;28;5779;-66
2022/06/25 12:40:58;;;;;;;;;;;;;;;25.23;52.73;96531.31;4204843;28;5144;-65
2022/06/25 12:43:01;;;;;;;;;;;;;;;25.24;52.93;96528.31;4215014;28;5835;-65
2022/06/25 12:45:05;;;;;;;;;;;;;;;25.27;52.63;96516.13;4213236;28;5699;-65
2022/06/25 12:47:11;;;;;;;;;;;;;;;25.31;52.74;96525.25;4216214;28;5757;-65
2022/06/25 12:49:14;;;;;;;;;;;;;;;25.32;52.58;96523.34;4217124;28;5971;-65
2022/06/25 12:51:22;;;;;;;;;;;;;;;25.32;52.24;96516.03;4213848;28;6598;-64
2022/06/25 12:53:26;;;;;;;;;;;;;;;25.34;52.24;96518.44;4204738;28;5757;-64
2022/06/25 12:55:29;;;;;;;;;;;;;;;25.35;52.24;96512.72;4217588;28;5758;-65
2022/06/25 12:57:33;;;;;;;;;;;;;;;25.37;52.53;96513.25;4217227;28;5819;-65
2022/06/25 12:59:35;;;;;;;;;;;;;;;25.40;52.31;96507.25;4212176;28;5818;-65
2022/06/25 13:01:38;;;;;;;;;;;;;;;25.42;52.25;96505.06;4213395;28;5766;-64
2022/06/25 13:03:43;;;;;;;;;;;;;;;25.43;51.83;96514.78;4208579;28;5786;-65
2022/06/25 13:05:45;;;;;;;;;;;;;;;25.42;51.82;96507.75;4215652;28;5666;-65
2022/06/25 13:07:49;;;;;;;;;;;;;;;25.42;52.07;96502.34;4215880;27;5778;-65
2022/06/25 13:09:52;;;;;;;;;;;;;;;25.43;51.88;96501.25;4211707;28;6048;-65
2022/06/25 13:12:00;;;;;;;;;;;;;;;25.44;51.51;96505.56;4211475;28;5774;-65
2022/06/25 13:14:03;;;;;;;;;;;;;;;25.47;51.62;96506.88;4214258;28;5838;-69
2022/06/25 13:16:06;;;;;;;;;;;;;;;25.51;50.96;96508.69;4214532;28;5810;-65
2022/06/25 13:18:09;;;;;;;;;;;;;;;25.53;50.92;96503.78;4219087;28;7432;-65
2022/06/25 13:20:15;;;;;;;;;;;;;;;25.55;51.23;96500.78;4214833;28;5770;-64
2022/06/25 13:22:18;;;;;;;;;;;;;;;25.58;50.89;96508.31;4210544;28;5770;-64
2022/06/25 13:24:21;;;;;;;;;;;;;;;25.59;51.02;96504.50;4203775;28;5758;-63
2022/06/25 13:26:24;;;;;;;;;;;;;;;25.62;50.60;96505.84;4212631;28;5945;-63
2022/06/25 13:28:27;;;;;;;;;;;;;;;25.65;50.49;96502.53;4214890;28;5781;-64
2022/06/25 13:30:30;;;;;;;;;;;;;;;25.69;49.88;96511.66;4214922;28;5758;-63
2022/06/25 13:32:53;;;;;;;;;;;;;;;25.70;49.41;96502.47;4211185;28;5817;-63
2022/06/25 13:34:56;;;;;;;;;;;;;;;25.71;49.05;96501.34;4220956;28;5787;-63
2022/06/25 13:37:01;;;;;;;;;;;;;;;25.74;48.80;96504.28;4213394;28;5850;-64
2022/06/25 13:39:05;;;;;;;;;;;;;;;25.76;48.31;96490.44;4220883;28;5792;-63
2022/06/25 13:41:08;;;;;;;;;;;;;;;25.78;47.99;96494.47;4216349;28;5770;-65
2022/06/25 13:43:11;;;;;;;;;;;;;;;25.81;47.91;96493.06;4220635;28;5748;-64
2022/06/25 13:45:15;;;;;;;;;;;;;;;25.78;47.79;96490.94;4213533;27;5909;-65
2022/06/25 13:47:19;;;;;;;;;;;;;;;25.78;47.55;96486.34;4206067;28;6742;-62
2022/06/25 13:49:21;;;;;;;;;;;;;;;25.79;47.65;96484.44;4210981;28;5781;-63
2022/06/25 13:51:25;;;;;;;;;;;;;;;25.83;47.35;96485.47;4207666;28;5812;-63
2022/06/25 13:53:30;;;;;;;;;;;;;;;25.86;47.26;96486.75;4209454;28;5869;-62
2022/06/25 13:55:34;;;;;;;;;;;;;;;25.87;47.06;96475.63;4206975;28;5871;-63
2022/06/25 13:57:36;;;;;;;;;;;;;;;25.91;46.87;96476.63;4205849;28;5877;-62
2022/06/25 13:59:43;;;;;;;;;;;;;;;25.93;46.79;96474.41;4208303;28;5764;-66
2022/06/25 14:01:46;;;;;;;;;;;;;;;25.94;46.96;96472.53;4214548;28;5889;-65
2022/06/25 14:03:49;;;;;;;;;;;;;;;25.96;46.73;96479.25;4210830;28;5835;-67
2022/06/25 14:05:52;;;;;;;;;;;;;;;26.01;46.38;96462.91;4213851;28;5874;-66
2022/06/25 14:07:56;;;;;;;;;;;;;;;26.03;46.07;96460.69;4210860;28;5795;-67
2022/06/25 14:10:01;;;;;;;;;;;;;;;26.05;46.29;96463.13;4219557;28;8480;-67
2022/06/25 14:12:05;;;;;;;;;;;;;;;26.02;45.83;96450.97;4216893;28;5856;-65
2022/06/25 14:14:08;;;;;;;;;;;;;;;26.04;46.17;96453.38;4212498;28;5778;-65
2022/06/25 14:16:11;;;;;;;;;;;;;;;26.04;45.73;96454.16;4213583;28;5795;-65
2022/06/25 14:18:13;;;;;;;;;;;;;;;26.06;45.77;96448.47;4213724;28;5115;-65
2022/06/25 14:20:16;;;;;;;;;;;;;;;26.09;45.96;96454.09;4210630;28;5761;-65
2022/06/25 14:22:19;;;;;;;;;;;;;;;26.14;45.78;96450.47;4207489;28;5804;-65
2022/06/25 14:26:41;;;;;;;;;;;;;;;26.23;44.88;96451.38;4213656;28;5807;-65
2022/06/25 14:28:43;;;;;;;;;;;;;;;26.26;45.04;96450.75;4208693;28;5786;-65
2022/06/25 14:30:47;;;;;;;;;;;;;;;26.27;45.12;96456.97;4217693;28;5762;-65
2022/06/25 14:32:50;;;;;;;;;;;;;;;26.24;45.12;96449.47;4213927;28;5771;-65
2022/06/25 14:34:53;;;;;;;;;;;;;;;26.26;45.14;96458.09;4217528;28;6600;-64
2022/06/25 14:44:05;;;;;;;;;;;;;;;26.28;44.81;96447.78;4184455;28;5832;-66
2022/06/25 14:46:08;;;;;;;;;;;;;;;26.29;44.93;96444.75;4184474;28;5807;-67
2022/06/25 14:48:11;;;;;;;;;;;;;;;26.31;44.71;96445.25;4180828;28;5886;-65
2022/06/25 14:50:14;;;;;;;;;;;;;;;26.28;44.74;96445.06;4177427;28;5833;-66
2022/06/25 14:52:17;;;;;;;;;;;;;;;26.26;44.70;96439.94;4183456;28;5827;-66
2022/06/25 14:54:19;;;;;;;;;;;;;;;26.29;44.65;96438.53;4172979;28;5854;-66
2022/06/25 14:56:22;;;;;;;;;;;;;;;26.28;44.77;96437.75;4175866;28;5845;-66
2022/06/25 14:58:27;;;;;;;;;;;;;;;26.33;44.61;96428.69;4181709;28;5881;-66
2022/06/25 15:00:30;;;;;;;;;;;;;;;26.32;44.21;96427.09;4178074;28;5836;-65
2022/06/25 15:02:32;;;;;;;;;;;;;;;26.34;44.15;96420.25;4176481;28;5768;-65
2022/06/25 15:04:35;;;;;;;;;;;;;;;26.42;44.41;96420.69;4173913;28;5961;-66
2022/06/25 15:06:38;;;;;;;;;;;;;;;26.45;43.90;96409.25;4170553;28;5747;-65
2022/06/25 15:08:41;;;;;;;;;;;;;;;26.45;43.94;96412.75;4157279;28;5863;-66
2022/06/25 15:10:44;;;;;;;;;;;;;;;26.45;43.87;96410.03;4171139;28;6476;-69
2022/06/25 15:12:47;;;;;;;;;;;;;;;26.43;43.90;96406.84;4185800;28;5844;-69
2022/06/25 15:14:52;;;;;;;;;;;;;;;26.48;43.67;96404.00;4161096;28;5846;-69
2022/06/25 15:16:54;;;;;;;;;;;;;;;26.51;43.56;96398.00;4162129;28;5881;-68
2022/06/25 15:18:58;;;;;;;;;;;;;;;26.53;43.59;96397.69;4178389;28;5722;-68
2022/06/25 15:21:08;;;;;;;;;;;;;;;26.52;43.64;96394.19;4177505;28;5933;-66
2022/06/25 15:23:11;;;;;;;;;;;;;;;26.53;43.69;96390.34;4181370;28;6386;-65
2022/06/25 15:25:14;;;;;;;;;;;;;;;26.56;43.48;96389.75;4192517;28;5871;-66
2022/06/25 15:27:17;;;;;;;;;;;;;;;26.56;43.46;96384.31;4178486;28;5730;-68
2022/06/25 15:29:20;;;;;;;;;;;;;;;26.59;43.66;96389.13;4182705;28;5825;-67
2022/06/25 15:31:24;;;;;;;;;;;;;;;26.59;43.69;96383.69;4183670;28;5782;-69
2022/06/25 15:33:27;;;;;;;;;;;;;;;26.56;43.66;96381.59;4181936;28;5726;-70
2022/06/25 15:35:30;;;;;;;;;;;;;;;26.57;43.63;96377.78;4184220;28;5092;-73
2022/06/25 15:37:33;;;;;;;;;;;;;;;26.59;43.63;96372.84;4181784;28;5722;-70
2022/06/25 15:39:37;;;;;;;;;;;;;;;26.59;43.90;96358.50;4183506;28;5837;-74
2022/06/25 15:41:40;;;;;;;;;;;;;;;26.63;43.66;96367.66;4185880;28;6629;-68
2022/06/25 15:43:43;;;;;;;;;;;;;;;26.64;43.84;96358.41;4183154;28;5266;-66
2022/06/25 15:45:45;;;;;;;;;;;;;;;26.68;43.48;96356.66;4184615;28;5723;-71
2022/06/25 15:47:50;;;;;;;;;;;;;;;26.68;43.62;96349.34;4181657;28;5707;-68
2022/06/25 15:49:53;;;;;;;;;;;;;;;26.68;43.34;96343.09;4180993;28;5875;-70
2022/06/25 15:51:56;;;;;;;;;;;;;;;26.67;43.28;96353.16;4196913;28;7737;-70
2022/06/25 15:53:59;;;;;;;;;;;;;;;26.66;43.28;96340.72;4180296;28;5897;-70
2022/06/25 15:56:02;;;;;;;;;;;;;;;26.66;43.22;96345.34;4183802;28;5726;-70
2022/06/25 15:58:05;;;;;;;;;;;;;;;26.64;43.33;96339.41;4180983;28;5723;-70
2022/06/25 16:00:09;;;;;;;;;;;;;;;26.61;43.75;96340.00;4182286;28;5710;-70
2022/06/25 16:02:12;;;;;;;;;;;;;;;26.60;43.54;96331.06;4174777;28;6594;-70
2022/06/25 16:04:17;;;;;;;;;;;;;;;26.61;43.35;96321.84;4177657;28;5896;-70
2022/06/25 16:06:20;;;;;;;;;;;;;;;26.62;43.48;96320.75;4181100;28;7740;-68
2022/06/25 16:08:23;;;;;;;;;;;;;;;26.62;43.50;96328.88;4181026;28;5733;-68
2022/06/25 16:10:26;;;;;;;;;;;;;;;26.63;43.54;96313.41;4183874;28;5781;-65
2022/06/25 16:12:29;;;;;;;;;;;;;;;26.63;43.88;96311.50;4183466;28;5743;-65
2022/06/25 16:14:32;;;;;;;;;;;;;;;26.63;43.93;96313.41;4209591;28;5671;-65
2022/06/25 16:16:36;;;;;;;;;;;;;;;26.61;43.63;96305.56;4214817;28;6509;-66
2022/06/25 16:18:39;;;;;;;;;;;;;;;26.60;43.53;96306.69;4209587;28;5865;-65
2022/06/25 16:20:43;;;;;;;;;;;;;;;26.60;43.74;96308.59;4214430;28;5770;-66
2022/06/25 16:22:46;;;;;;;;;;;;;;;26.60;43.75;96312.09;4212544;28;5770;-66
2022/06/25 16:24:49;;;;;;;;;;;;;;;26.60;43.82;96309.41;4211659;28;6433;-67
2022/06/25 16:26:53;;;;;;;;;;;;;;;26.59;43.88;96310.50;4214265;28;5777;-66
2022/06/25 16:28:56;;;;;;;;;;;;;;;26.59;43.86;96302.38;4209752;28;5769;-66
2022/06/25 16:31:04;;;;;;;;;;;;;;;26.64;43.63;96299.56;4212431;28;5105;-66
2022/06/25 16:33:07;;;;;;;;;;;;;;;26.66;43.40;96310.88;4214417;28;5763;-66
2022/06/25 16:35:10;;;;;;;;;;;;;;;26.66;43.75;96310.88;4209570;28;5786;-66
2022/06/25 16:37:15;;;;;;;;;;;;;;;26.72;43.39;96305.31;4214560;28;5774;-72
2022/06/25 16:39:18;;;;;;;;;;;;;;;26.75;43.59;96304.75;4209388;28;5877;-80
2022/06/25 16:41:28;;;;;;;;;;;;;;;26.75;43.41;96305.53;4214452;28;5985;-68
2022/06/25 16:45:49;;;;;;;;;;;;;;;26.75;43.62;96308.25;4211078;28;5880;-71
2022/06/25 16:47:53;;;;;;;;;;;;;;;26.71;43.34;96307.25;4210833;28;5873;-71
2022/06/25 16:49:56;;;;;;;;;;;;;;;26.69;43.80;96302.13;4212297;28;5987;-68
2022/06/25 16:52:00;;;;;;;;;;;;;;;26.77;44.00;96297.09;4213157;28;5770;-70
2022/06/25 16:54:04;;;;;;;;;;;;;;;26.79;43.90;96289.44;4211158;28;5797;-72
2022/06/25 16:56:08;;;;;;;;;;;;;;;26.80;43.82;96299.16;4215562;28;5790;-69
2022/06/25 16:58:11;;;;;;;;;;;;;;;26.79;43.86;96303.00;4213575;28;6472;-74
2022/06/25 17:00:15;;;;;;;;;;;;;;;26.77;43.86;96307.94;4210330;28;5905;-71
2022/06/25 17:02:18;;;;;;;;;;;;;;;26.77;43.63;96308.72;4212850;28;5846;-71
2022/06/25 17:04:21;;;;;;;;;;;;;;;26.77;43.68;96303.31;4205871;28;5902;-71
2022/06/25 17:06:24;;;;;;;;;;;;;;;26.78;43.68;96313.03;4206946;28;5836;-70
2022/06/25 17:08:28;;;;;;;;;;;;;;;26.76;43.44;96307.13;4211231;28;5818;-74
2022/06/25 17:10:32;;;;;;;;;;;;;;;26.74;43.63;96311.28;4214010;28;5766;-73
2022/06/25 17:12:35;;;;;;;;;;;;;;;26.73;43.53;96305.03;4215580;28;5762;-71
2022/06/25 17:14:38;;;;;;;;;;;;;;;26.75;43.82;96307.44;4212711;28;5120;-72
2022/06/25 17:16:41;;;;;;;;;;;;;;;26.76;43.77;96306.34;4214557;28;5809;-71
2022/06/25 17:18:45;;;;;;;;;;;;;;;26.77;43.79;96310.66;4213992;28;5823;-71
2022/06/25 17:20:48;;;;;;;;;;;;;;;26.77;43.98;96319.59;4217399;28;5882;-71
2022/06/25 17:22:51;;;;;;;;;;;;;;;26.78;43.91;96318.47;4207892;28;5772;-73
2022/06/25 17:24:54;;;;;;;;;;;;;;;26.79;44.03;96317.34;4215026;28;7721;-73
2022/06/25 17:26:58;;;;;;;;;;;;;;;26.80;43.81;96323.59;4212702;28;5739;-73
2022/06/25 17:29:02;;;;;;;;;;;;;;;26.80;43.78;96329.00;4211083;28;5865;-75